Jp Cosmos — JD2534 — position and weather

sailwx.info

Track history (hours):
 
Tides and Currents Weather Stations Pressure Air Temp Water Temp Dewpoint Dewpoint Depression Visibility Wind Speed Wind Dir Waves Ship Positions

Jp Cosmos

Last reported at 2017-Dec-11 16:52 UTC. Time now 2017-Dec-13 07:22 UTC.
Position N 35°30' E 139°55'.

; draft 6.2 m.

Type: Cargo ship. MMSI: 431000474.

Date/timePositionNaut miles runAvg speedWind from/ knotsBaromVisibWave heightAir tempDewpointWater temp
2017-Dec-11 16:52N 35°30' E 139°55'0 0.1
2017-Dec-11 16:28N 35°30' E 139°55'0 0.0
2017-Dec-11 16:01N 35°30' E 139°55'0 0.0
2017-Dec-11 15:30N 35°30' E 139°55'0 0.0
2017-Dec-11 14:58N 35°30' E 139°55'0 0.0
2017-Dec-11 14:25N 35°30' E 139°55'0 0.1
2017-Dec-11 13:58N 35°30' E 139°55'0 0.0
2017-Dec-11 13:13N 35°30' E 139°55'0 0.2
2017-Dec-11 12:58N 35°30' E 139°55'0 0.2
2017-Dec-11 12:28N 35°30' E 139°55'3 7.0
2017-Dec-11 12:00N 35°28' E 139°52'612.8
2017-Dec-11 11:30N 35°25' E 139°45'510.5
2017-Dec-11 11:00N 35°24' E 139°39'0 0.2
2017-Dec-11 10:24N 35°24' E 139°39'0 0.0
2017-Dec-11 10:00N 35°24' E 139°39'0 0.0
2017-Dec-11 09:30N 35°24' E 139°39'0 0.0
2017-Dec-11 08:51N 35°24' E 139°39'0 0.0
2017-Dec-11 08:27N 35°24' E 139°39'0 0.0
2017-Dec-11 08:00N 35°24' E 139°39'0 0.0
2017-Dec-11 07:30N 35°24' E 139°39'0 0.0
2017-Dec-11 07:00N 35°24' E 139°39'0 0.0
2017-Dec-11 06:27N 35°24' E 139°39'0 0.0
2017-Dec-11 06:00N 35°24' E 139°39'0 0.0
2017-Dec-11 05:27N 35°24' E 139°39'0 0.0
2017-Dec-11 05:00N 35°24' E 139°39'0 0.0
2017-Dec-11 04:30N 35°24' E 139°39'0 0.5
2017-Dec-11 04:00N 35°24' E 139°38'3 5.2
2017-Dec-11 03:30N 35°23' E 139°42'3 5.1
2017-Dec-11 03:00N 35°25' E 139°44'4 9.0
2017-Dec-11 02:30N 35°29' E 139°48'3 6.7
2017-Dec-11 02:00N 35°30' E 139°44'0 0.9
2017-Dec-11 01:30N 35°30' E 139°43'0 0.0
2017-Dec-11 01:00N 35°30' E 139°43'0 0.0
2017-Dec-11 00:30N 35°30' E 139°43'0 0.0
2017-Dec-11 00:00N 35°30' E 139°43'0 0.0
2017-Dec-10 23:30N 35°30' E 139°43'0 0.0
2017-Dec-10 22:57N 35°30' E 139°43'0 0.0
2017-Dec-10 22:30N 35°30' E 139°43'0 0.0
2017-Dec-10 21:57N 35°30' E 139°43'0 0.0
2017-Dec-10 21:30N 35°30' E 139°43'0 0.0
2017-Dec-10 20:57N 35°30' E 139°43'0 0.0
2017-Dec-10 20:30N 35°30' E 139°43'0 0.0
2017-Dec-10 19:57N 35°30' E 139°43'0 0.0
2017-Dec-10 19:30N 35°30' E 139°43'0 0.0
2017-Dec-10 19:00N 35°30' E 139°43'0 0.0
2017-Dec-10 18:30N 35°30' E 139°43'0 0.0
2017-Dec-10 17:57N 35°30' E 139°43'0 0.0
2017-Dec-10 17:30N 35°30' E 139°43'0 0.0
2017-Dec-10 17:00N 35°30' E 139°43'0 0.0
2017-Dec-10 16:30N 35°30' E 139°43'0 0.0
2017-Dec-10 16:00N 35°30' E 139°43'0 0.0
2017-Dec-10 15:30N 35°30' E 139°43'0 0.0
2017-Dec-10 14:57N 35°30' E 139°43'0 0.0
2017-Dec-10 14:30N 35°30' E 139°43'0 0.0
2017-Dec-10 14:00N 35°30' E 139°43'0 0.0
2017-Dec-10 13:30N 35°30' E 139°43'0 0.0
2017-Dec-10 13:00N 35°30' E 139°43'0 0.0
2017-Dec-10 12:30N 35°30' E 139°43'0 0.0
2017-Dec-10 12:00N 35°30' E 139°43'0 0.0
2017-Dec-10 11:30N 35°30' E 139°43'0 0.0
2017-Dec-10 11:00N 35°30' E 139°43'0 0.0
2017-Dec-10 10:30N 35°30' E 139°43'0 0.0
2017-Dec-10 10:00N 35°30' E 139°43'0 0.0
2017-Dec-10 09:30N 35°30' E 139°43'1 1.1
2017-Dec-10 09:01N 35°29' E 139°43'3 5.9
2017-Dec-10 08:31N 35°26' E 139°44'4 8.5
2017-Dec-10 08:00N 35°24' E 139°40'1 3.0
2017-Dec-10 07:31N 35°24' E 139°39'0 0.0
2017-Dec-10 07:01N 35°24' E 139°39'0 0.0
2017-Dec-10 06:31N 35°24' E 139°39'0 0.0
2017-Dec-10 05:58N 35°24' E 139°39'0 0.0
2017-Dec-10 05:31N 35°24' E 139°39'0 0.0
2017-Dec-10 05:01N 35°24' E 139°39'0 0.0
2017-Dec-10 04:31N 35°24' E 139°39'0 0.0
2017-Dec-10 04:00N 35°24' E 139°39'0 0.0
2017-Dec-10 03:25N 35°24' E 139°39'0 0.0
2017-Dec-10 03:01N 35°24' E 139°39'0 0.0
2017-Dec-10 02:31N 35°24' E 139°39'0 0.0
2017-Dec-10 02:00N 35°24' E 139°39'0 0.0
2017-Dec-10 01:28N 35°24' E 139°39'0 0.0
2017-Dec-10 01:01N 35°24' E 139°39'0 0.0
2017-Dec-10 00:30N 35°24' E 139°39'0 0.7
2017-Dec-10 00:00N 35°24' E 139°39'3 5.7
2017-Dec-09 23:30N 35°24' E 139°42'4 8.8
2017-Dec-09 23:00N 35°27' E 139°46'510.5
2017-Dec-09 22:30N 35°30' E 139°51'3 5.4
2017-Dec-09 22:00N 35°29' E 139°55'0 0.1
2017-Dec-09 21:30N 35°29' E 139°55'0 0.1
2017-Dec-09 21:00N 35°29' E 139°55'0 0.1
2017-Dec-09 20:30N 35°29' E 139°55'0 0.0
2017-Dec-09 20:00N 35°29' E 139°55'0 0.0
2017-Dec-09 19:27N 35°29' E 139°55'0 0.1
2017-Dec-09 18:57N 35°29' E 139°55'0 0.1
2017-Dec-09 18:30N 35°29' E 139°55'0 0.1
2017-Dec-09 18:00N 35°29' E 139°55'0 0.0
2017-Dec-09 17:30N 35°29' E 139°55'0 0.0
2017-Dec-09 17:00N 35°29' E 139°55'0 0.0
2017-Dec-09 16:27N 35°29' E 139°55'0 0.0
2017-Dec-09 15:57N 35°29' E 139°55'0 0.0
2017-Dec-09 15:30N 35°29' E 139°55'0 0.1
2017-Dec-09 15:00N 35°29' E 139°55'0 0.0
2017-Dec-09 14:30N 35°29' E 139°55'1 1.8
2017-Dec-09 14:00N 35°29' E 139°56'3 5.7
2017-Dec-09 13:30N 35°27' E 139°58'0 0.0
2017-Dec-09 12:53N 35°27' E 139°58'0 0.0
2017-Dec-09 12:26N 35°27' E 139°58'0 0.0
2017-Dec-09 11:59N 35°27' E 139°58'0 0.0
2017-Dec-09 11:29N 35°27' E 139°58'0 0.0
2017-Dec-09 10:59N 35°27' E 139°58'0 0.0
2017-Dec-09 10:26N 35°27' E 139°58'0 0.0
2017-Dec-09 09:59N 35°27' E 139°58'0 0.4
2017-Dec-09 09:30N 35°28' E 139°58'3 5.4
2017-Dec-09 09:00N 35°29' E 139°55'611.9
2017-Dec-09 08:30N 35°27' E 139°49'612.4
2017-Dec-09 08:00N 35°24' E 139°42'3 5.5
2017-Dec-09 07:28N 35°24' E 139°39'0 0.0
2017-Dec-09 06:58N 35°24' E 139°39'0 0.0
2017-Dec-09 06:28N 35°24' E 139°39'0 0.0
2017-Dec-09 05:58N 35°24' E 139°39'0 0.0
2017-Dec-09 05:28N 35°24' E 139°39'0 0.0
2017-Dec-09 04:58N 35°24' E 139°39'0 0.0
2017-Dec-09 04:28N 35°24' E 139°39'0 0.0
2017-Dec-09 03:58N 35°24' E 139°39'0 0.0
2017-Dec-09 03:28N 35°24' E 139°39'0 0.0
2017-Dec-09 02:58N 35°24' E 139°39'0 0.0
2017-Dec-09 02:28N 35°24' E 139°39'0 0.0
2017-Dec-09 01:58N 35°24' E 139°39'0 0.0
2017-Dec-09 01:28N 35°24' E 139°39'0 0.0
2017-Dec-09 00:58N 35°24' E 139°39'0 0.0
2017-Dec-09 00:30N 35°24' E 139°39'0 0.7
2017-Dec-09 00:00N 35°24' E 139°39'3 6.3
2017-Dec-08 23:30N 35°24' E 139°42'611.2
2017-Dec-08 23:00N 35°27' E 139°48'510.7
2017-Dec-08 22:30N 35°30' E 139°53'1 2.6
2017-Dec-08 22:00N 35°30' E 139°55'0 0.0
2017-Dec-08 21:28N 35°30' E 139°55'0 0.0
2017-Dec-08 20:58N 35°30' E 139°55'0 0.0
2017-Dec-08 20:28N 35°30' E 139°55'0 0.0
2017-Dec-08 19:58N 35°30' E 139°55'0 0.0
2017-Dec-08 19:28N 35°30' E 139°55'0 0.0
2017-Dec-08 18:58N 35°30' E 139°55'0 0.0
2017-Dec-08 18:28N 35°30' E 139°55'0 0.0
2017-Dec-08 17:55N 35°30' E 139°55'0 0.0
2017-Dec-08 17:28N 35°30' E 139°55'0 0.1
2017-Dec-08 16:55N 35°30' E 139°55'0 0.0
2017-Dec-08 16:28N 35°30' E 139°55'0 0.1
2017-Dec-08 15:58N 35°30' E 139°55'0 0.0
2017-Dec-08 15:28N 35°30' E 139°55'0 0.0
2017-Dec-08 14:58N 35°30' E 139°55'0 0.0
2017-Dec-08 14:25N 35°30' E 139°55'0 0.0
2017-Dec-08 13:58N 35°30' E 139°55'0 0.1
2017-Dec-08 13:28N 35°30' E 139°55'2 5.2
2017-Dec-08 13:00N 35°29' E 139°57'2 3.6
2017-Dec-08 12:31N 35°27' E 139°58'0 0.0
2017-Dec-08 11:57N 35°27' E 139°58'0 0.0
2017-Dec-08 11:24N 35°27' E 139°58'0 0.0
2017-Dec-08 11:00N 35°27' E 139°58'0 0.0
2017-Dec-08 10:27N 35°27' E 139°58'0 0.0
2017-Dec-08 09:54N 35°27' E 139°58'0 0.0
2017-Dec-08 09:27N 35°27' E 139°58'0 0.0
2017-Dec-08 08:51N 35°27' E 139°58'0 0.6
2017-Dec-08 08:25N 35°28' E 139°58'1 3.5
2017-Dec-08 08:00N 35°29' E 139°57'1 1.6
2017-Dec-08 07:29N 35°30' E 139°57'0 0.1
2017-Dec-08 06:59N 35°30' E 139°57'3 7.0
2017-Dec-08 06:31N 35°29' E 139°53'510.8
2017-Dec-08 06:01N 35°26' E 139°47'510.6
2017-Dec-08 05:30N 35°24' E 139°42'3 5.0
2017-Dec-08 05:01N 35°24' E 139°39'0 0.0
2017-Dec-08 04:29N 35°24' E 139°39'0 0.0
2017-Dec-08 03:59N 35°24' E 139°39'0 0.0
2017-Dec-08 03:29N 35°24' E 139°39'0 0.0
2017-Dec-08 02:59N 35°24' E 139°39'0 0.0
2017-Dec-08 02:29N 35°24' E 139°39'0 0.0
2017-Dec-08 01:59N 35°24' E 139°39'0 0.0
2017-Dec-08 01:29N 35°24' E 139°39'0 0.0
2017-Dec-08 00:59N 35°24' E 139°39'0 0.0
2017-Dec-08 00:26N 35°24' E 139°39'0 0.0
2017-Dec-07 23:59N 35°24' E 139°39'0 0.0
2017-Dec-07 23:30N 35°24' E 139°39'0 0.7
2017-Dec-07 23:00N 35°24' E 139°39'4 7.1
2017-Dec-07 22:30N 35°23' E 139°43'1 1.6
2017-Dec-07 21:58N 35°23' E 139°44'0 0.0
2017-Dec-07 21:28N 35°23' E 139°44'0 0.0
2017-Dec-07 20:58N 35°23' E 139°44'0 0.0
2017-Dec-07 20:28N 35°23' E 139°44'0 0.0
2017-Dec-07 19:58N 35°23' E 139°44'0 0.0
2017-Dec-07 19:28N 35°23' E 139°44'0 0.0
2017-Dec-07 18:58N 35°23' E 139°44'0 0.0
2017-Dec-07 18:28N 35°23' E 139°44'0 0.0
2017-Dec-07 17:58N 35°23' E 139°44'0 0.1
2017-Dec-07 17:28N 35°23' E 139°44'0 0.1
2017-Dec-07 16:58N 35°23' E 139°44'0 0.1
2017-Dec-07 16:28N 35°23' E 139°44'0 0.0
2017-Dec-07 15:58N 35°23' E 139°44'0 0.0
2017-Dec-07 15:28N 35°23' E 139°44'0 0.0
2017-Dec-07 14:58N 35°23' E 139°44'0 0.0
2017-Dec-07 14:28N 35°23' E 139°44'2 4.0
2017-Dec-07 14:00N 35°25' E 139°45'611.1
2017-Dec-07 13:30N 35°30' E 139°48'4 7.7
2017-Dec-07 13:00N 35°30' E 139°43'0 0.5
2017-Dec-07 12:30N 35°30' E 139°43'0 0.0
2017-Dec-07 12:00N 35°30' E 139°43'0 0.0
2017-Dec-07 11:30N 35°30' E 139°43'0 0.0
2017-Dec-07 11:00N 35°30' E 139°43'0 0.0
2017-Dec-07 10:30N 35°30' E 139°43'0 0.0
2017-Dec-07 10:00N 35°30' E 139°43'0 0.0
2017-Dec-07 09:30N 35°30' E 139°43'0 0.0
2017-Dec-07 09:00N 35°30' E 139°43'0 0.0
2017-Dec-07 08:30N 35°30' E 139°43'0 0.0
2017-Dec-07 08:00N 35°30' E 139°43'0 0.0
2017-Dec-07 07:30N 35°30' E 139°43'0 0.1
2017-Dec-07 07:00N 35°30' E 139°43'2 3.4
2017-Dec-07 06:31N 35°28' E 139°42'5 9.8
2017-Dec-07 06:01N 35°23' E 139°41'2 4.5
2017-Dec-07 05:31N 35°24' E 139°39'0 0.0
2017-Dec-07 05:00N 35°24' E 139°39'0 0.0
2017-Dec-07 04:31N 35°24' E 139°39'0 0.0
2017-Dec-07 03:58N 35°24' E 139°39'0 0.0
2017-Dec-07 03:28N 35°24' E 139°39'0 0.0
2017-Dec-07 03:01N 35°24' E 139°39'0 0.0
2017-Dec-07 02:31N 35°24' E 139°39'0 0.0
2017-Dec-07 02:01N 35°24' E 139°39'0 0.0
2017-Dec-07 01:31N 35°24' E 139°39'0 0.2
2017-Dec-07 00:58N 35°24' E 139°39'0 0.3
2017-Dec-07 00:30N 35°24' E 139°39'0 0.0
2017-Dec-07 00:01N 35°24' E 139°39'0 0.0
2017-Dec-06 23:31N 35°24' E 139°39'1 2.2
2017-Dec-06 23:00N 35°24' E 139°40'510.1
2017-Dec-06 22:31N 35°26' E 139°45'510.8
2017-Dec-06 22:01N 35°29' E 139°51'5 9.2
2017-Dec-06 21:31N 35°29' E 139°56'3 5.2
2017-Dec-06 21:01N 35°27' E 139°58'  
2017-Dec-04 10:30N 35°24' E 139°40'0 0.0
2017-Dec-04 10:00N 35°24' E 139°40'0 0.0
2017-Dec-04 09:30N 35°24' E 139°40'0 0.0
2017-Dec-04 09:00N 35°24' E 139°40'0 0.0
2017-Dec-04 08:30N 35°24' E 139°40'0 0.0
2017-Dec-04 08:00N 35°24' E 139°40'0 0.0
2017-Dec-04 07:30N 35°24' E 139°40'0 0.0
2017-Dec-04 07:00N 35°24' E 139°40'0 0.0
2017-Dec-04 06:30N 35°24' E 139°40'0 0.6
2017-Dec-04 06:00N 35°24' E 139°40'1 1.9
2017-Dec-04 05:30N 35°24' E 139°39'0 0.0
2017-Dec-04 05:00N 35°24' E 139°39'0 0.0
2017-Dec-04 04:30N 35°24' E 139°39'0 0.0
2017-Dec-04 04:00N 35°24' E 139°39'0 0.1
2017-Dec-04 03:30N 35°24' E 139°39'0 0.0
2017-Dec-04 03:00N 35°24' E 139°39'0 0.0
2017-Dec-04 02:30N 35°24' E 139°39'0 0.0
2017-Dec-04 02:00N 35°24' E 139°39'0 0.0
2017-Dec-04 01:31N 35°24' E 139°39'0 0.0
2017-Dec-04 01:00N 35°24' E 139°39'0 0.0
2017-Dec-04 00:30N 35°24' E 139°39'0 0.0
2017-Dec-04 00:00N 35°24' E 139°39'0 0.0
2017-Dec-03 23:30N 35°24' E 139°39'1 1.3
2017-Dec-03 23:01N 35°24' E 139°39'4 7.9
2017-Dec-03 22:30N 35°23' E 139°44'0 0.5
2017-Dec-03 22:00N 35°23' E 139°44'0 0.0
2017-Dec-03 21:30N 35°23' E 139°44'0 0.1
2017-Dec-03 21:00N 35°23' E 139°44'0 0.0
2017-Dec-03 20:30N 35°23' E 139°44'0 0.0
2017-Dec-03 20:00N 35°23' E 139°44'0 0.0
2017-Dec-03 19:30N 35°23' E 139°44'0 0.1
2017-Dec-03 19:00N 35°23' E 139°44'0 0.0
2017-Dec-03 18:30N 35°23' E 139°44'0 0.0
2017-Dec-03 18:00N 35°23' E 139°44'0 0.1
2017-Dec-03 17:30N 35°23' E 139°44'0 0.0
2017-Dec-03 17:00N 35°23' E 139°44'0 0.1
2017-Dec-03 16:30N 35°23' E 139°44'0 0.1
2017-Dec-03 16:00N 35°23' E 139°44'0 0.1
2017-Dec-03 15:30N 35°23' E 139°44'1 1.9
2017-Dec-03 15:00N 35°24' E 139°45'511.0
2017-Dec-03 14:31N 35°29' E 139°48'4 7.5
2017-Dec-03 14:01N 35°30' E 139°43'0 0.5
2017-Dec-03 13:30N 35°30' E 139°43'0 0.0
2017-Dec-03 13:00N 35°30' E 139°43'0 0.0
2017-Dec-03 12:30N 35°30' E 139°43'0 0.0
2017-Dec-03 12:00N 35°30' E 139°43'0 0.0
2017-Dec-03 11:30N 35°30' E 139°43'0 0.0
2017-Dec-03 11:00N 35°30' E 139°43'0 0.0
2017-Dec-03 10:30N 35°30' E 139°43'0 0.0
2017-Dec-03 10:00N 35°30' E 139°43'0 0.0
2017-Dec-03 09:30N 35°30' E 139°43'0 0.0
2017-Dec-03 09:00N 35°30' E 139°43'0 0.0
2017-Dec-03 08:30N 35°30' E 139°43'0 0.4
2017-Dec-03 08:00N 35°30' E 139°43'2 4.2
2017-Dec-03 07:30N 35°28' E 139°43'4 8.9
2017-Dec-03 07:00N 35°23' E 139°40'2 3.3
2017-Dec-03 06:30N 35°24' E 139°39'0 0.0
2017-Dec-03 06:00N 35°24' E 139°39'0 0.0
2017-Dec-03 05:30N 35°24' E 139°39'0 0.0
2017-Dec-03 05:00N 35°24' E 139°39'0 0.1
2017-Dec-03 04:30N 35°24' E 139°39'0 0.1
2017-Dec-03 04:00N 35°24' E 139°39'0 0.0
2017-Dec-03 03:30N 35°24' E 139°39'0 0.0
2017-Dec-03 03:00N 35°24' E 139°39'0 0.0
2017-Dec-03 02:30N 35°24' E 139°39'0 0.0
2017-Dec-03 02:00N 35°24' E 139°39'0 0.0
2017-Dec-03 01:30N 35°24' E 139°39'0 0.0
2017-Dec-03 01:00N 35°24' E 139°39'0 0.0
2017-Dec-03 00:30N 35°24' E 139°39'0 0.8
2017-Dec-03 00:01N 35°24' E 139°39'3 6.3
2017-Dec-02 23:30N 35°24' E 139°42'5 9.9
2017-Dec-02 23:00N 35°27' E 139°47'510.4
2017-Dec-02 22:30N 35°30' E 139°52'2 4.2
2017-Dec-02 22:00N 35°30' E 139°55'0 0.0
2017-Dec-02 21:29N 35°30' E 139°55'0 0.0
2017-Dec-02 20:56N 35°30' E 139°55'0 0.0
2017-Dec-02 20:29N 35°30' E 139°55'0 0.0
2017-Dec-02 19:59N 35°30' E 139°55'0 0.0
2017-Dec-02 19:29N 35°30' E 139°55'0 0.0
2017-Dec-02 18:56N 35°30' E 139°55'0 0.0
2017-Dec-02 18:29N 35°30' E 139°55'0 0.0
2017-Dec-02 17:59N 35°30' E 139°55'0 0.1
2017-Dec-02 17:29N 35°30' E 139°55'0 0.1
2017-Dec-02 16:59N 35°30' E 139°55'0 0.0
2017-Dec-02 16:29N 35°30' E 139°55'0 0.0
2017-Dec-02 15:59N 35°30' E 139°55'0 0.0
2017-Dec-02 15:29N 35°30' E 139°55'0 0.0
2017-Dec-02 14:59N 35°30' E 139°55'0 0.0
2017-Dec-02 14:29N 35°30' E 139°55'0 0.0
2017-Dec-02 13:59N 35°30' E 139°55'0 0.1
2017-Dec-02 13:29N 35°30' E 139°55'0 0.0
2017-Dec-02 12:59N 35°30' E 139°55'0 0.6
2017-Dec-02 12:31N 35°30' E 139°55'3 6.4
2017-Dec-02 12:00N 35°27' E 139°58'0 0.1
2017-Dec-02 11:28N 35°27' E 139°58'0 0.0
2017-Dec-02 10:58N 35°27' E 139°58'0 0.0
2017-Dec-02 10:28N 35°27' E 139°58'0 0.0
2017-Dec-02 09:58N 35°27' E 139°58'0 0.0
2017-Dec-02 09:28N 35°27' E 139°58'0 0.0
2017-Dec-02 08:52N 35°27' E 139°58'0 0.0
2017-Dec-02 08:28N 35°27' E 139°58'0 0.0
2017-Dec-02 07:58N 35°27' E 139°58'0 0.2
2017-Dec-02 07:30N 35°27' E 139°58'3 5.4
2017-Dec-02 07:00N 35°29' E 139°55'611.6
2017-Dec-02 06:30N 35°27' E 139°49'611.9
2017-Dec-02 06:00N 35°24' E 139°42'3 6.5
2017-Dec-02 05:30N 35°24' E 139°39'0 0.0
2017-Dec-02 04:55N 35°24' E 139°39'0 0.2
2017-Dec-02 04:28N 35°24' E 139°38'0 0.2
2017-Dec-02 03:58N 35°24' E 139°39'0 0.0
2017-Dec-02 03:28N 35°24' E 139°39'0 0.0
2017-Dec-02 02:58N 35°24' E 139°39'0 0.0
2017-Dec-02 02:28N 35°24' E 139°39'0 0.0
2017-Dec-02 01:58N 35°24' E 139°39'0 0.0
2017-Dec-02 01:28N 35°24' E 139°39'0 0.0
2017-Dec-02 00:58N 35°24' E 139°39'0 0.0
2017-Dec-02 00:28N 35°24' E 139°39'0 0.0
2017-Dec-01 23:55N 35°24' E 139°39'0 0.0
2017-Dec-01 23:31N 35°24' E 139°39'0 0.8
2017-Dec-01 23:01N 35°24' E 139°39'1 2.2
2017-Dec-01 22:31N 35°24' E 139°40'0 0.3
2017-Dec-01 21:59N 35°24' E 139°40'0 0.0
2017-Dec-01 21:28N 35°24' E 139°40'0 0.0
2017-Dec-01 20:59N 35°24' E 139°40'0 0.0
2017-Dec-01 20:29N 35°24' E 139°40'0 0.0
2017-Dec-01 19:59N 35°24' E 139°40'0 0.0
2017-Dec-01 19:29N 35°24' E 139°40'0 0.0
2017-Dec-01 18:58N 35°24' E 139°40'0 0.0
2017-Dec-01 18:28N 35°24' E 139°40'0 0.0
2017-Dec-01 17:59N 35°24' E 139°40'0 0.0
2017-Dec-01 17:29N 35°24' E 139°40'0 0.0
2017-Dec-01 16:59N 35°24' E 139°40'  
Track history (hours):
 
Tides and Currents Weather Stations Pressure Air Temp Water Temp Dewpoint Dewpoint Depression Visibility Wind Speed Wind Dir Waves Ship Positions

Jp Cosmos

Last reported at 2017-Dec-11 16:52 UTC. Time now 2017-Dec-13 07:22 UTC.
Position N 35°30' E 139°55'.

; draft 6.2 m.

Type: Cargo ship. MMSI: 431000474.

Date/timePositionNaut miles runAvg speedWind from/ knotsBaromVisibWave heightAir tempDewpointWater temp
2017-Dec-11 16:52N 35°30' E 139°55'0 0.1
2017-Dec-11 16:28N 35°30' E 139°55'0 0.0
2017-Dec-11 16:01N 35°30' E 139°55'0 0.0
2017-Dec-11 15:30N 35°30' E 139°55'0 0.0
2017-Dec-11 14:58N 35°30' E 139°55'0 0.0
2017-Dec-11 14:25N 35°30' E 139°55'0 0.1
2017-Dec-11 13:58N 35°30' E 139°55'0 0.0
2017-Dec-11 13:13N 35°30' E 139°55'0 0.2
2017-Dec-11 12:58N 35°30' E 139°55'0 0.2
2017-Dec-11 12:28N 35°30' E 139°55'3 7.0
2017-Dec-11 12:00N 35°28' E 139°52'612.8
2017-Dec-11 11:30N 35°25' E 139°45'510.5
2017-Dec-11 11:00N 35°24' E 139°39'0 0.2
2017-Dec-11 10:24N 35°24' E 139°39'0 0.0
2017-Dec-11 10:00N 35°24' E 139°39'0 0.0
2017-Dec-11 09:30N 35°24' E 139°39'0 0.0
2017-Dec-11 08:51N 35°24' E 139°39'0 0.0
2017-Dec-11 08:27N 35°24' E 139°39'0 0.0
2017-Dec-11 08:00N 35°24' E 139°39'0 0.0
2017-Dec-11 07:30N 35°24' E 139°39'0 0.0
2017-Dec-11 07:00N 35°24' E 139°39'0 0.0
2017-Dec-11 06:27N 35°24' E 139°39'0 0.0
2017-Dec-11 06:00N 35°24' E 139°39'0 0.0
2017-Dec-11 05:27N 35°24' E 139°39'0 0.0
2017-Dec-11 05:00N 35°24' E 139°39'0 0.0
2017-Dec-11 04:30N 35°24' E 139°39'0 0.5
2017-Dec-11 04:00N 35°24' E 139°38'3 5.2
2017-Dec-11 03:30N 35°23' E 139°42'3 5.1
2017-Dec-11 03:00N 35°25' E 139°44'4 9.0
2017-Dec-11 02:30N 35°29' E 139°48'3 6.7
2017-Dec-11 02:00N 35°30' E 139°44'0 0.9
2017-Dec-11 01:30N 35°30' E 139°43'0 0.0
2017-Dec-11 01:00N 35°30' E 139°43'0 0.0
2017-Dec-11 00:30N 35°30' E 139°43'0 0.0
2017-Dec-11 00:00N 35°30' E 139°43'0 0.0
2017-Dec-10 23:30N 35°30' E 139°43'0 0.0
2017-Dec-10 22:57N 35°30' E 139°43'0 0.0
2017-Dec-10 22:30N 35°30' E 139°43'0 0.0
2017-Dec-10 21:57N 35°30' E 139°43'0 0.0
2017-Dec-10 21:30N 35°30' E 139°43'0 0.0
2017-Dec-10 20:57N 35°30' E 139°43'0 0.0
2017-Dec-10 20:30N 35°30' E 139°43'0 0.0
2017-Dec-10 19:57N 35°30' E 139°43'0 0.0
2017-Dec-10 19:30N 35°30' E 139°43'0 0.0
2017-Dec-10 19:00N 35°30' E 139°43'0 0.0
2017-Dec-10 18:30N 35°30' E 139°43'0 0.0
2017-Dec-10 17:57N 35°30' E 139°43'0 0.0
2017-Dec-10 17:30N 35°30' E 139°43'0 0.0
2017-Dec-10 17:00N 35°30' E 139°43'0 0.0
2017-Dec-10 16:30N 35°30' E 139°43'0 0.0
2017-Dec-10 16:00N 35°30' E 139°43'0 0.0
2017-Dec-10 15:30N 35°30' E 139°43'0 0.0
2017-Dec-10 14:57N 35°30' E 139°43'0 0.0
2017-Dec-10 14:30N 35°30' E 139°43'0 0.0
2017-Dec-10 14:00N 35°30' E 139°43'0 0.0
2017-Dec-10 13:30N 35°30' E 139°43'0 0.0
2017-Dec-10 13:00N 35°30' E 139°43'0 0.0
2017-Dec-10 12:30N 35°30' E 139°43'0 0.0
2017-Dec-10 12:00N 35°30' E 139°43'0 0.0
2017-Dec-10 11:30N 35°30' E 139°43'0 0.0
2017-Dec-10 11:00N 35°30' E 139°43'0 0.0
2017-Dec-10 10:30N 35°30' E 139°43'0 0.0
2017-Dec-10 10:00N 35°30' E 139°43'0 0.0
2017-Dec-10 09:30N 35°30' E 139°43'1 1.1
2017-Dec-10 09:01N 35°29' E 139°43'3 5.9
2017-Dec-10 08:31N 35°26' E 139°44'4 8.5
2017-Dec-10 08:00N 35°24' E 139°40'1 3.0
2017-Dec-10 07:31N 35°24' E 139°39'0 0.0
2017-Dec-10 07:01N 35°24' E 139°39'0 0.0
2017-Dec-10 06:31N 35°24' E 139°39'0 0.0
2017-Dec-10 05:58N 35°24' E 139°39'0 0.0
2017-Dec-10 05:31N 35°24' E 139°39'0 0.0
2017-Dec-10 05:01N 35°24' E 139°39'0 0.0
2017-Dec-10 04:31N 35°24' E 139°39'0 0.0
2017-Dec-10 04:00N 35°24' E 139°39'0 0.0
2017-Dec-10 03:25N 35°24' E 139°39'0 0.0
2017-Dec-10 03:01N 35°24' E 139°39'0 0.0
2017-Dec-10 02:31N 35°24' E 139°39'0 0.0
2017-Dec-10 02:00N 35°24' E 139°39'0 0.0
2017-Dec-10 01:28N 35°24' E 139°39'0 0.0
2017-Dec-10 01:01N 35°24' E 139°39'0 0.0
2017-Dec-10 00:30N 35°24' E 139°39'0 0.7
2017-Dec-10 00:00N 35°24' E 139°39'3 5.7
2017-Dec-09 23:30N 35°24' E 139°42'4 8.8
2017-Dec-09 23:00N 35°27' E 139°46'510.5
2017-Dec-09 22:30N 35°30' E 139°51'3 5.4
2017-Dec-09 22:00N 35°29' E 139°55'0 0.1
2017-Dec-09 21:30N 35°29' E 139°55'0 0.1
2017-Dec-09 21:00N 35°29' E 139°55'0 0.1
2017-Dec-09 20:30N 35°29' E 139°55'0 0.0
2017-Dec-09 20:00N 35°29' E 139°55'0 0.0
2017-Dec-09 19:27N 35°29' E 139°55'0 0.1
2017-Dec-09 18:57N 35°29' E 139°55'0 0.1
2017-Dec-09 18:30N 35°29' E 139°55'0 0.1
2017-Dec-09 18:00N 35°29' E 139°55'0 0.0
2017-Dec-09 17:30N 35°29' E 139°55'0 0.0
2017-Dec-09 17:00N 35°29' E 139°55'0 0.0
2017-Dec-09 16:27N 35°29' E 139°55'0 0.0
2017-Dec-09 15:57N 35°29' E 139°55'0 0.0
2017-Dec-09 15:30N 35°29' E 139°55'0 0.1
2017-Dec-09 15:00N 35°29' E 139°55'0 0.0
2017-Dec-09 14:30N 35°29' E 139°55'1 1.8
2017-Dec-09 14:00N 35°29' E 139°56'3 5.7
2017-Dec-09 13:30N 35°27' E 139°58'0 0.0
2017-Dec-09 12:53N 35°27' E 139°58'0 0.0
2017-Dec-09 12:26N 35°27' E 139°58'0 0.0
2017-Dec-09 11:59N 35°27' E 139°58'0 0.0
2017-Dec-09 11:29N 35°27' E 139°58'0 0.0
2017-Dec-09 10:59N 35°27' E 139°58'0 0.0
2017-Dec-09 10:26N 35°27' E 139°58'0 0.0
2017-Dec-09 09:59N 35°27' E 139°58'0 0.4
2017-Dec-09 09:30N 35°28' E 139°58'3 5.4
2017-Dec-09 09:00N 35°29' E 139°55'611.9
2017-Dec-09 08:30N 35°27' E 139°49'612.4
2017-Dec-09 08:00N 35°24' E 139°42'3 5.5
2017-Dec-09 07:28N 35°24' E 139°39'0 0.0
2017-Dec-09 06:58N 35°24' E 139°39'0 0.0
2017-Dec-09 06:28N 35°24' E 139°39'0 0.0
2017-Dec-09 05:58N 35°24' E 139°39'0 0.0
2017-Dec-09 05:28N 35°24' E 139°39'0 0.0
2017-Dec-09 04:58N 35°24' E 139°39'0 0.0
2017-Dec-09 04:28N 35°24' E 139°39'0 0.0
2017-Dec-09 03:58N 35°24' E 139°39'0 0.0
2017-Dec-09 03:28N 35°24' E 139°39'0 0.0
2017-Dec-09 02:58N 35°24' E 139°39'0 0.0
2017-Dec-09 02:28N 35°24' E 139°39'0 0.0
2017-Dec-09 01:58N 35°24' E 139°39'0 0.0
2017-Dec-09 01:28N 35°24' E 139°39'0 0.0
2017-Dec-09 00:58N 35°24' E 139°39'0 0.0
2017-Dec-09 00:30N 35°24' E 139°39'0 0.7
2017-Dec-09 00:00N 35°24' E 139°39'3 6.3
2017-Dec-08 23:30N 35°24' E 139°42'611.2
2017-Dec-08 23:00N 35°27' E 139°48'510.7
2017-Dec-08 22:30N 35°30' E 139°53'1 2.6
2017-Dec-08 22:00N 35°30' E 139°55'0 0.0
2017-Dec-08 21:28N 35°30' E 139°55'0 0.0
2017-Dec-08 20:58N 35°30' E 139°55'0 0.0
2017-Dec-08 20:28N 35°30' E 139°55'0 0.0
2017-Dec-08 19:58N 35°30' E 139°55'0 0.0
2017-Dec-08 19:28N 35°30' E 139°55'0 0.0
2017-Dec-08 18:58N 35°30' E 139°55'0 0.0
2017-Dec-08 18:28N 35°30' E 139°55'0 0.0
2017-Dec-08 17:55N 35°30' E 139°55'0 0.0
2017-Dec-08 17:28N 35°30' E 139°55'0 0.1
2017-Dec-08 16:55N 35°30' E 139°55'0 0.0
2017-Dec-08 16:28N 35°30' E 139°55'0 0.1
2017-Dec-08 15:58N 35°30' E 139°55'0 0.0
2017-Dec-08 15:28N 35°30' E 139°55'0 0.0
2017-Dec-08 14:58N 35°30' E 139°55'0 0.0
2017-Dec-08 14:25N 35°30' E 139°55'0 0.0
2017-Dec-08 13:58N 35°30' E 139°55'0 0.1
2017-Dec-08 13:28N 35°30' E 139°55'2 5.2
2017-Dec-08 13:00N 35°29' E 139°57'2 3.6
2017-Dec-08 12:31N 35°27' E 139°58'0 0.0
2017-Dec-08 11:57N 35°27' E 139°58'0 0.0
2017-Dec-08 11:24N 35°27' E 139°58'0 0.0
2017-Dec-08 11:00N 35°27' E 139°58'0 0.0
2017-Dec-08 10:27N 35°27' E 139°58'0 0.0
2017-Dec-08 09:54N 35°27' E 139°58'0 0.0
2017-Dec-08 09:27N 35°27' E 139°58'0 0.0
2017-Dec-08 08:51N 35°27' E 139°58'0 0.6
2017-Dec-08 08:25N 35°28' E 139°58'1 3.5
2017-Dec-08 08:00N 35°29' E 139°57'1 1.6
2017-Dec-08 07:29N 35°30' E 139°57'0 0.1
2017-Dec-08 06:59N 35°30' E 139°57'3 7.0
2017-Dec-08 06:31N 35°29' E 139°53'510.8
2017-Dec-08 06:01N 35°26' E 139°47'510.6
2017-Dec-08 05:30N 35°24' E 139°42'3 5.0
2017-Dec-08 05:01N 35°24' E 139°39'0 0.0
2017-Dec-08 04:29N 35°24' E 139°39'0 0.0
2017-Dec-08 03:59N 35°24' E 139°39'0 0.0
2017-Dec-08 03:29N 35°24' E 139°39'0 0.0
2017-Dec-08 02:59N 35°24' E 139°39'0 0.0
2017-Dec-08 02:29N 35°24' E 139°39'0 0.0
2017-Dec-08 01:59N 35°24' E 139°39'0 0.0
2017-Dec-08 01:29N 35°24' E 139°39'0 0.0
2017-Dec-08 00:59N 35°24' E 139°39'0 0.0
2017-Dec-08 00:26N 35°24' E 139°39'0 0.0
2017-Dec-07 23:59N 35°24' E 139°39'0 0.0
2017-Dec-07 23:30N 35°24' E 139°39'0 0.7
2017-Dec-07 23:00N 35°24' E 139°39'4 7.1
2017-Dec-07 22:30N 35°23' E 139°43'1 1.6
2017-Dec-07 21:58N 35°23' E 139°44'0 0.0
2017-Dec-07 21:28N 35°23' E 139°44'0 0.0
2017-Dec-07 20:58N 35°23' E 139°44'0 0.0
2017-Dec-07 20:28N 35°23' E 139°44'0 0.0
2017-Dec-07 19:58N 35°23' E 139°44'0 0.0
2017-Dec-07 19:28N 35°23' E 139°44'0 0.0
2017-Dec-07 18:58N 35°23' E 139°44'0 0.0
2017-Dec-07 18:28N 35°23' E 139°44'0 0.0
2017-Dec-07 17:58N 35°23' E 139°44'0 0.1
2017-Dec-07 17:28N 35°23' E 139°44'0 0.1
2017-Dec-07 16:58N 35°23' E 139°44'0 0.1
2017-Dec-07 16:28N 35°23' E 139°44'0 0.0
2017-Dec-07 15:58N 35°23' E 139°44'0 0.0
2017-Dec-07 15:28N 35°23' E 139°44'0 0.0
2017-Dec-07 14:58N 35°23' E 139°44'0 0.0
2017-Dec-07 14:28N 35°23' E 139°44'2 4.0
2017-Dec-07 14:00N 35°25' E 139°45'611.1
2017-Dec-07 13:30N 35°30' E 139°48'4 7.7
2017-Dec-07 13:00N 35°30' E 139°43'0 0.5
2017-Dec-07 12:30N 35°30' E 139°43'0 0.0
2017-Dec-07 12:00N 35°30' E 139°43'0 0.0
2017-Dec-07 11:30N 35°30' E 139°43'0 0.0
2017-Dec-07 11:00N 35°30' E 139°43'0 0.0
2017-Dec-07 10:30N 35°30' E 139°43'0 0.0
2017-Dec-07 10:00N 35°30' E 139°43'0 0.0
2017-Dec-07 09:30N 35°30' E 139°43'0 0.0
2017-Dec-07 09:00N 35°30' E 139°43'0 0.0
2017-Dec-07 08:30N 35°30' E 139°43'0 0.0
2017-Dec-07 08:00N 35°30' E 139°43'0 0.0
2017-Dec-07 07:30N 35°30' E 139°43'0 0.1
2017-Dec-07 07:00N 35°30' E 139°43'2 3.4
2017-Dec-07 06:31N 35°28' E 139°42'5 9.8
2017-Dec-07 06:01N 35°23' E 139°41'2 4.5
2017-Dec-07 05:31N 35°24' E 139°39'0 0.0
2017-Dec-07 05:00N 35°24' E 139°39'0 0.0
2017-Dec-07 04:31N 35°24' E 139°39'0 0.0
2017-Dec-07 03:58N 35°24' E 139°39'0 0.0
2017-Dec-07 03:28N 35°24' E 139°39'0 0.0
2017-Dec-07 03:01N 35°24' E 139°39'0 0.0
2017-Dec-07 02:31N 35°24' E 139°39'0 0.0
2017-Dec-07 02:01N 35°24' E 139°39'0 0.0
2017-Dec-07 01:31N 35°24' E 139°39'0 0.2
2017-Dec-07 00:58N 35°24' E 139°39'0 0.3
2017-Dec-07 00:30N 35°24' E 139°39'0 0.0
2017-Dec-07 00:01N 35°24' E 139°39'0 0.0
2017-Dec-06 23:31N 35°24' E 139°39'1 2.2
2017-Dec-06 23:00N 35°24' E 139°40'510.1
2017-Dec-06 22:31N 35°26' E 139°45'510.8
2017-Dec-06 22:01N 35°29' E 139°51'5 9.2
2017-Dec-06 21:31N 35°29' E 139°56'3 5.2
2017-Dec-06 21:01N 35°27' E 139°58'  
2017-Dec-04 10:30N 35°24' E 139°40'0 0.0
2017-Dec-04 10:00N 35°24' E 139°40'0 0.0
2017-Dec-04 09:30N 35°24' E 139°40'0 0.0
2017-Dec-04 09:00N 35°24' E 139°40'0 0.0
2017-Dec-04 08:30N 35°24' E 139°40'0 0.0
2017-Dec-04 08:00N 35°24' E 139°40'0 0.0
2017-Dec-04 07:30N 35°24' E 139°40'0 0.0
2017-Dec-04 07:00N 35°24' E 139°40'0 0.0
2017-Dec-04 06:30N 35°24' E 139°40'0 0.6
2017-Dec-04 06:00N 35°24' E 139°40'1 1.9
2017-Dec-04 05:30N 35°24' E 139°39'0 0.0
2017-Dec-04 05:00N 35°24' E 139°39'0 0.0
2017-Dec-04 04:30N 35°24' E 139°39'0 0.0
2017-Dec-04 04:00N 35°24' E 139°39'0 0.1
2017-Dec-04 03:30N 35°24' E 139°39'0 0.0
2017-Dec-04 03:00N 35°24' E 139°39'0 0.0
2017-Dec-04 02:30N 35°24' E 139°39'0 0.0
2017-Dec-04 02:00N 35°24' E 139°39'0 0.0
2017-Dec-04 01:31N 35°24' E 139°39'0 0.0
2017-Dec-04 01:00N 35°24' E 139°39'0 0.0
2017-Dec-04 00:30N 35°24' E 139°39'0 0.0
2017-Dec-04 00:00N 35°24' E 139°39'0 0.0
2017-Dec-03 23:30N 35°24' E 139°39'1 1.3
2017-Dec-03 23:01N 35°24' E 139°39'4 7.9
2017-Dec-03 22:30N 35°23' E 139°44'0 0.5
2017-Dec-03 22:00N 35°23' E 139°44'0 0.0
2017-Dec-03 21:30N 35°23' E 139°44'0 0.1
2017-Dec-03 21:00N 35°23' E 139°44'0 0.0
2017-Dec-03 20:30N 35°23' E 139°44'0 0.0
2017-Dec-03 20:00N 35°23' E 139°44'0 0.0
2017-Dec-03 19:30N 35°23' E 139°44'0 0.1
2017-Dec-03 19:00N 35°23' E 139°44'0 0.0
2017-Dec-03 18:30N 35°23' E 139°44'0 0.0
2017-Dec-03 18:00N 35°23' E 139°44'0 0.1
2017-Dec-03 17:30N 35°23' E 139°44'0 0.0
2017-Dec-03 17:00N 35°23' E 139°44'0 0.1
2017-Dec-03 16:30N 35°23' E 139°44'0 0.1
2017-Dec-03 16:00N 35°23' E 139°44'0 0.1
2017-Dec-03 15:30N 35°23' E 139°44'1 1.9
2017-Dec-03 15:00N 35°24' E 139°45'511.0
2017-Dec-03 14:31N 35°29' E 139°48'4 7.5
2017-Dec-03 14:01N 35°30' E 139°43'0 0.5
2017-Dec-03 13:30N 35°30' E 139°43'0 0.0
2017-Dec-03 13:00N 35°30' E 139°43'0 0.0
2017-Dec-03 12:30N 35°30' E 139°43'0 0.0
2017-Dec-03 12:00N 35°30' E 139°43'0 0.0
2017-Dec-03 11:30N 35°30' E 139°43'0 0.0
2017-Dec-03 11:00N 35°30' E 139°43'0 0.0
2017-Dec-03 10:30N 35°30' E 139°43'0 0.0
2017-Dec-03 10:00N 35°30' E 139°43'0 0.0
2017-Dec-03 09:30N 35°30' E 139°43'0 0.0
2017-Dec-03 09:00N 35°30' E 139°43'0 0.0
2017-Dec-03 08:30N 35°30' E 139°43'0 0.4
2017-Dec-03 08:00N 35°30' E 139°43'2 4.2
2017-Dec-03 07:30N 35°28' E 139°43'4 8.9
2017-Dec-03 07:00N 35°23' E 139°40'2 3.3
2017-Dec-03 06:30N 35°24' E 139°39'0 0.0
2017-Dec-03 06:00N 35°24' E 139°39'0 0.0
2017-Dec-03 05:30N 35°24' E 139°39'0 0.0
2017-Dec-03 05:00N 35°24' E 139°39'0 0.1
2017-Dec-03 04:30N 35°24' E 139°39'0 0.1
2017-Dec-03 04:00N 35°24' E 139°39'0 0.0
2017-Dec-03 03:30N 35°24' E 139°39'0 0.0
2017-Dec-03 03:00N 35°24' E 139°39'0 0.0
2017-Dec-03 02:30N 35°24' E 139°39'0 0.0
2017-Dec-03 02:00N 35°24' E 139°39'0 0.0
2017-Dec-03 01:30N 35°24' E 139°39'0 0.0
2017-Dec-03 01:00N 35°24' E 139°39'0 0.0
2017-Dec-03 00:30N 35°24' E 139°39'0 0.8
2017-Dec-03 00:01N 35°24' E 139°39'3 6.3
2017-Dec-02 23:30N 35°24' E 139°42'5 9.9
2017-Dec-02 23:00N 35°27' E 139°47'510.4
2017-Dec-02 22:30N 35°30' E 139°52'2 4.2
2017-Dec-02 22:00N 35°30' E 139°55'0 0.0
2017-Dec-02 21:29N 35°30' E 139°55'0 0.0
2017-Dec-02 20:56N 35°30' E 139°55'0 0.0
2017-Dec-02 20:29N 35°30' E 139°55'0 0.0
2017-Dec-02 19:59N 35°30' E 139°55'0 0.0
2017-Dec-02 19:29N 35°30' E 139°55'0 0.0
2017-Dec-02 18:56N 35°30' E 139°55'0 0.0
2017-Dec-02 18:29N 35°30' E 139°55'0 0.0
2017-Dec-02 17:59N 35°30' E 139°55'0 0.1
2017-Dec-02 17:29N 35°30' E 139°55'0 0.1
2017-Dec-02 16:59N 35°30' E 139°55'0 0.0
2017-Dec-02 16:29N 35°30' E 139°55'0 0.0
2017-Dec-02 15:59N 35°30' E 139°55'0 0.0
2017-Dec-02 15:29N 35°30' E 139°55'0 0.0
2017-Dec-02 14:59N 35°30' E 139°55'0 0.0
2017-Dec-02 14:29N 35°30' E 139°55'0 0.0
2017-Dec-02 13:59N 35°30' E 139°55'0 0.1
2017-Dec-02 13:29N 35°30' E 139°55'0 0.0
2017-Dec-02 12:59N 35°30' E 139°55'0 0.6
2017-Dec-02 12:31N 35°30' E 139°55'3 6.4
2017-Dec-02 12:00N 35°27' E 139°58'0 0.1
2017-Dec-02 11:28N 35°27' E 139°58'0 0.0
2017-Dec-02 10:58N 35°27' E 139°58'0 0.0
2017-Dec-02 10:28N 35°27' E 139°58'0 0.0
2017-Dec-02 09:58N 35°27' E 139°58'0 0.0
2017-Dec-02 09:28N 35°27' E 139°58'0 0.0
2017-Dec-02 08:52N 35°27' E 139°58'0 0.0
2017-Dec-02 08:28N 35°27' E 139°58'0 0.0
2017-Dec-02 07:58N 35°27' E 139°58'0 0.2
2017-Dec-02 07:30N 35°27' E 139°58'3 5.4
2017-Dec-02 07:00N 35°29' E 139°55'611.6
2017-Dec-02 06:30N 35°27' E 139°49'611.9
2017-Dec-02 06:00N 35°24' E 139°42'3 6.5
2017-Dec-02 05:30N 35°24' E 139°39'0 0.0
2017-Dec-02 04:55N 35°24' E 139°39'0 0.2
2017-Dec-02 04:28N 35°24' E 139°38'0 0.2
2017-Dec-02 03:58N 35°24' E 139°39'0 0.0
2017-Dec-02 03:28N 35°24' E 139°39'0 0.0
2017-Dec-02 02:58N 35°24' E 139°39'0 0.0
2017-Dec-02 02:28N 35°24' E 139°39'0 0.0
2017-Dec-02 01:58N 35°24' E 139°39'0 0.0
2017-Dec-02 01:28N 35°24' E 139°39'0 0.0
2017-Dec-02 00:58N 35°24' E 139°39'0 0.0
2017-Dec-02 00:28N 35°24' E 139°39'0 0.0
2017-Dec-01 23:55N 35°24' E 139°39'0 0.0
2017-Dec-01 23:31N 35°24' E 139°39'0 0.8
2017-Dec-01 23:01N 35°24' E 139°39'1 2.2
2017-Dec-01 22:31N 35°24' E 139°40'0 0.3
2017-Dec-01 21:59N 35°24' E 139°40'0 0.0
2017-Dec-01 21:28N 35°24' E 139°40'0 0.0
2017-Dec-01 20:59N 35°24' E 139°40'0 0.0
2017-Dec-01 20:29N 35°24' E 139°40'0 0.0
2017-Dec-01 19:59N 35°24' E 139°40'0 0.0
2017-Dec-01 19:29N 35°24' E 139°40'0 0.0
2017-Dec-01 18:58N 35°24' E 139°40'0 0.0
2017-Dec-01 18:28N 35°24' E 139°40'0 0.0
2017-Dec-01 17:59N 35°24' E 139°40'0 0.0
2017-Dec-01 17:29N 35°24' E 139°40'0 0.0
2017-Dec-01 16:59N 35°24' E 139°40'  

Dump ship's entire track history